sensor_id;sensor_type;location;lat;lon;timestamp;temperature;humidity
51839;DHT22;37886;53.174;6.368;2023-01-23T00:02:17;2.70;99.90
51839;DHT22;37886;53.174;6.368;2023-01-23T00:04:43;2.70;99.90
51839;DHT22;37886;53.174;6.368;2023-01-23T00:07:08;2.70;99.90
51839;DHT22;37886;53.174;6.368;2023-01-23T00:09:34;2.70;99.90
51839;DHT22;37886;53.174;6.368;2023-01-23T00:12:00;2.70;99.90
51839;DHT22;37886;53.174;6.368;2023-01-23T00:14:26;2.70;99.90
51839;DHT22;37886;53.174;6.368;2023-01-23T00:16:52;2.80;99.90
51839;DHT22;37886;53.174;6.368;2023-01-23T00:19:18;2.80;99.90
51839;DHT22;37886;53.174;6.368;2023-01-23T00:21:47;2.80;99.90
51839;DHT22;37886;53.174;6.368;2023-01-23T00:24:13;2.80;99.90
51839;DHT22;37886;53.174;6.368;2023-01-23T00:26:39;2.70;99.90
51839;DHT22;37886;53.174;6.368;2023-01-23T00:29:05;2.70;99.90
51839;DHT22;37886;53.174;6.368;2023-01-23T00:31:36;2.70;99.90
51839;DHT22;37886;53.174;6.368;2023-01-23T00:34:05;2.70;99.90
51839;DHT22;37886;53.174;6.368;2023-01-23T00:36:34;2.70;99.90
51839;DHT22;37886;53.174;6.368;2023-01-23T00:39:01;2.70;99.90
51839;DHT22;37886;53.174;6.368;2023-01-23T00:41:27;2.70;99.90
51839;DHT22;37886;53.174;6.368;2023-01-23T00:43:53;2.70;99.90
51839;DHT22;37886;53.174;6.368;2023-01-23T00:46:20;2.70;99.90
51839;DHT22;37886;53.174;6.368;2023-01-23T00:48:48;2.70;99.90
51839;DHT22;37886;53.174;6.368;2023-01-23T00:51:17;2.70;99.90
51839;DHT22;37886;53.174;6.368;2023-01-23T00:53:45;2.60;99.90
51839;DHT22;37886;53.174;6.368;2023-01-23T00:56:11;2.60;99.90
51839;DHT22;37886;53.174;6.368;2023-01-23T00:58:37;2.70;99.90
51839;DHT22;37886;53.174;6.368;2023-01-23T01:01:05;2.60;99.90
51839;DHT22;37886;53.174;6.368;2023-01-23T01:03:30;2.60;99.90
51839;DHT22;37886;53.174;6.368;2023-01-23T01:05:56;2.60;99.90
51839;DHT22;37886;53.174;6.368;2023-01-23T01:08:25;2.60;99.90
51839;DHT22;37886;53.174;6.368;2023-01-23T01:10:50;2.50;99.90
51839;DHT22;37886;53.174;6.368;2023-01-23T01:13:16;2.60;99.90
51839;DHT22;37886;53.174;6.368;2023-01-23T01:15:50;2.70;99.90
51839;DHT22;37886;53.174;6.368;2023-01-23T01:18:16;2.70;99.90
51839;DHT22;37886;53.174;6.368;2023-01-23T01:20:43;2.70;99.90
51839;DHT22;37886;53.174;6.368;2023-01-23T01:23:09;2.70;99.90
51839;DHT22;37886;53.174;6.368;2023-01-23T01:25:41;2.80;99.90
51839;DHT22;37886;53.174;6.368;2023-01-23T01:28:10;2.70;99.90
51839;DHT22;37886;53.174;6.368;2023-01-23T01:30:38;2.70;99.90
51839;DHT22;37886;53.174;6.368;2023-01-23T01:33:06;2.80;99.90
51839;DHT22;37886;53.174;6.368;2023-01-23T01:35:32;2.70;99.90
51839;DHT22;37886;53.174;6.368;2023-01-23T01:37:58;2.80;99.90
51839;DHT22;37886;53.174;6.368;2023-01-23T01:40:32;2.80;99.90
51839;DHT22;37886;53.174;6.368;2023-01-23T01:43:04;2.80;99.90
51839;DHT22;37886;53.174;6.368;2023-01-23T01:46:01;2.80;99.90
51839;DHT22;37886;53.174;6.368;2023-01-23T01:51:39;2.70;99.90
51839;DHT22;37886;53.174;6.368;2023-01-23T01:54:28;2.80;99.90
51839;DHT22;37886;53.174;6.368;2023-01-23T01:57:19;2.80;99.90
51839;DHT22;37886;53.174;6.368;2023-01-23T02:02:37;2.80;99.90
51839;DHT22;37886;53.174;6.368;2023-01-23T02:05:10;2.80;99.90
51839;DHT22;37886;53.174;6.368;2023-01-23T02:10:14;2.80;99.90
51839;DHT22;37886;53.174;6.368;2023-01-23T02:12:45;2.80;99.90
51839;DHT22;37886;53.174;6.368;2023-01-23T02:15:11;2.80;99.90
51839;DHT22;37886;53.174;6.368;2023-01-23T02:17:37;2.80;99.90
51839;DHT22;37886;53.174;6.368;2023-01-23T02:20:25;2.80;99.90
51839;DHT22;37886;53.174;6.368;2023-01-23T02:23:07;2.80;99.90
51839;DHT22;37886;53.174;6.368;2023-01-23T02:28:14;2.70;99.90
51839;DHT22;37886;53.174;6.368;2023-01-23T02:30:41;2.70;99.90
51839;DHT22;37886;53.174;6.368;2023-01-23T02:35:52;2.60;99.90
51839;DHT22;37886;53.174;6.368;2023-01-23T02:38:23;2.60;99.90
51839;DHT22;37886;53.174;6.368;2023-01-23T02:40:50;2.70;99.90
51839;DHT22;37886;53.174;6.368;2023-01-23T02:43:21;2.70;99.90
51839;DHT22;37886;53.174;6.368;2023-01-23T02:45:48;2.70;99.90
51839;DHT22;37886;53.174;6.368;2023-01-23T02:48:22;2.60;99.90
51839;DHT22;37886;53.174;6.368;2023-01-23T02:50:54;2.70;99.90
51839;DHT22;37886;53.174;6.368;2023-01-23T02:53:20;2.70;99.90
51839;DHT22;37886;53.174;6.368;2023-01-23T02:55:45;2.60;99.90
51839;DHT22;37886;53.174;6.368;2023-01-23T02:58:11;2.60;99.90
51839;DHT22;37886;53.174;6.368;2023-01-23T03:00:55;2.60;99.90
51839;DHT22;37886;53.174;6.368;2023-01-23T03:03:21;2.60;99.90
51839;DHT22;37886;53.174;6.368;2023-01-23T03:05:48;2.60;99.90
51839;DHT22;37886;53.174;6.368;2023-01-23T03:08:15;2.60;99.90
51839;DHT22;37886;53.174;6.368;2023-01-23T03:10:40;2.50;99.90
51839;DHT22;37886;53.174;6.368;2023-01-23T03:13:07;2.60;99.90
51839;DHT22;37886;53.174;6.368;2023-01-23T03:15:43;2.50;99.90
51839;DHT22;37886;53.174;6.368;2023-01-23T03:18:11;2.60;99.90
51839;DHT22;37886;53.174;6.368;2023-01-23T03:20:40;2.50;99.90
51839;DHT22;37886;53.174;6.368;2023-01-23T03:23:07;2.50;99.90
51839;DHT22;37886;53.174;6.368;2023-01-23T03:25:33;2.50;99.90
51839;DHT22;37886;53.174;6.368;2023-01-23T03:27:59;2.60;99.90
51839;DHT22;37886;53.174;6.368;2023-01-23T03:30:25;2.60;99.90
51839;DHT22;37886;53.174;6.368;2023-01-23T03:32:51;2.60;99.90
51839;DHT22;37886;53.174;6.368;2023-01-23T03:35:20;2.60;99.90
51839;DHT22;37886;53.174;6.368;2023-01-23T03:37:47;2.50;99.90
51839;DHT22;37886;53.174;6.368;2023-01-23T03:40:18;2.60;99.90
51839;DHT22;37886;53.174;6.368;2023-01-23T03:43:02;2.60;99.90
51839;DHT22;37886;53.174;6.368;2023-01-23T03:45:29;2.50;99.90
51839;DHT22;37886;53.174;6.368;2023-01-23T03:47:58;2.50;99.90
51839;DHT22;37886;53.174;6.368;2023-01-23T03:50:24;2.50;99.90
51839;DHT22;37886;53.174;6.368;2023-01-23T03:52:53;2.50;99.90
51839;DHT22;37886;53.174;6.368;2023-01-23T03:55:19;2.50;99.90
51839;DHT22;37886;53.174;6.368;2023-01-23T03:57:48;2.40;99.90
51839;DHT22;37886;53.174;6.368;2023-01-23T04:00:14;2.50;99.90
51839;DHT22;37886;53.174;6.368;2023-01-23T04:02:43;2.40;99.90
51839;DHT22;37886;53.174;6.368;2023-01-23T04:05:12;2.40;99.90
51839;DHT22;37886;53.174;6.368;2023-01-23T04:07:38;2.40;99.90
51839;DHT22;37886;53.174;6.368;2023-01-23T04:10:07;2.40;99.90
51839;DHT22;37886;53.174;6.368;2023-01-23T04:12:33;2.50;99.90
51839;DHT22;37886;53.174;6.368;2023-01-23T04:15:02;2.50;99.90
51839;DHT22;37886;53.174;6.368;2023-01-23T04:17:30;2.60;99.90
51839;DHT22;37886;53.174;6.368;2023-01-23T04:19:56;2.50;99.90
51839;DHT22;37886;53.174;6.368;2023-01-23T04:22:21;2.50;99.90
51839;DHT22;37886;53.174;6.368;2023-01-23T04:24:50;2.40;99.90
51839;DHT22;37886;53.174;6.368;2023-01-23T04:27:16;2.50;99.90
51839;DHT22;37886;53.174;6.368;2023-01-23T04:29:42;2.50;99.90
51839;DHT22;37886;53.174;6.368;2023-01-23T04:32:12;2.50;99.90
51839;DHT22;37886;53.174;6.368;2023-01-23T04:34:38;2.50;99.90
51839;DHT22;37886;53.174;6.368;2023-01-23T04:37:05;2.40;99.90
51839;DHT22;37886;53.174;6.368;2023-01-23T04:39:31;2.50;99.90
51839;DHT22;37886;53.174;6.368;2023-01-23T04:41:57;2.50;99.90
51839;DHT22;37886;53.174;6.368;2023-01-23T04:44:23;2.50;99.90
51839;DHT22;37886;53.174;6.368;2023-01-23T04:46:50;2.50;99.90
51839;DHT22;37886;53.174;6.368;2023-01-23T04:49:23;2.50;99.90
51839;DHT22;37886;53.174;6.368;2023-01-23T04:51:50;2.50;99.90
51839;DHT22;37886;53.174;6.368;2023-01-23T04:54:17;2.50;99.90
51839;DHT22;37886;53.174;6.368;2023-01-23T04:56:44;2.40;99.90
51839;DHT22;37886;53.174;6.368;2023-01-23T04:59:10;2.40;99.90
51839;DHT22;37886;53.174;6.368;2023-01-23T05:01:36;2.40;99.90
51839;DHT22;37886;53.174;6.368;2023-01-23T05:04:02;2.40;99.90
51839;DHT22;37886;53.174;6.368;2023-01-23T05:06:28;2.40;99.90
51839;DHT22;37886;53.174;6.368;2023-01-23T05:08:54;2.40;99.90
51839;DHT22;37886;53.174;6.368;2023-01-23T05:11:20;2.40;99.90
51839;DHT22;37886;53.174;6.368;2023-01-23T05:13:46;2.40;99.90
51839;DHT22;37886;53.174;6.368;2023-01-23T05:16:11;2.40;99.90
51839;DHT22;37886;53.174;6.368;2023-01-23T05:18:37;2.40;99.90
51839;DHT22;37886;53.174;6.368;2023-01-23T05:21:03;2.40;99.90
51839;DHT22;37886;53.174;6.368;2023-01-23T05:23:29;2.30;99.90
51839;DHT22;37886;53.174;6.368;2023-01-23T05:25:55;2.30;99.90
51839;DHT22;37886;53.174;6.368;2023-01-23T05:28:23;2.30;99.90
51839;DHT22;37886;53.174;6.368;2023-01-23T05:30:52;2.30;99.90
51839;DHT22;37886;53.174;6.368;2023-01-23T05:33:18;2.30;99.90
51839;DHT22;37886;53.174;6.368;2023-01-23T05:35:43;2.30;99.90
51839;DHT22;37886;53.174;6.368;2023-01-23T05:38:11;2.30;99.90
51839;DHT22;37886;53.174;6.368;2023-01-23T05:40:37;2.20;99.90
51839;DHT22;37886;53.174;6.368;2023-01-23T05:43:03;2.20;99.90
51839;DHT22;37886;53.174;6.368;2023-01-23T05:45:29;2.20;99.90
51839;DHT22;37886;53.174;6.368;2023-01-23T05:47:55;2.20;99.90
51839;DHT22;37886;53.174;6.368;2023-01-23T05:50:20;2.20;99.90
51839;DHT22;37886;53.174;6.368;2023-01-23T05:52:49;2.20;99.90
51839;DHT22;37886;53.174;6.368;2023-01-23T05:55:15;2.20;99.90
51839;DHT22;37886;53.174;6.368;2023-01-23T05:57:43;2.30;99.90
51839;DHT22;37886;53.174;6.368;2023-01-23T06:00:12;2.20;99.90
51839;DHT22;37886;53.174;6.368;2023-01-23T06:02:40;2.30;99.90
51839;DHT22;37886;53.174;6.368;2023-01-23T06:05:06;2.30;99.90
51839;DHT22;37886;53.174;6.368;2023-01-23T06:07:32;2.30;99.90
51839;DHT22;37886;53.174;6.368;2023-01-23T06:09:58;2.30;99.90
51839;DHT22;37886;53.174;6.368;2023-01-23T06:12:23;2.30;99.90
51839;DHT22;37886;53.174;6.368;2023-01-23T06:14:49;2.40;99.90
51839;DHT22;37886;53.174;6.368;2023-01-23T06:17:15;2.40;99.90
51839;DHT22;37886;53.174;6.368;2023-01-23T06:19:41;2.40;99.90
51839;DHT22;37886;53.174;6.368;2023-01-23T06:22:10;2.40;99.90
51839;DHT22;37886;53.174;6.368;2023-01-23T06:24:38;2.30;99.90
51839;DHT22;37886;53.174;6.368;2023-01-23T06:27:04;2.30;99.90
51839;DHT22;37886;53.174;6.368;2023-01-23T06:29:34;2.30;99.90
51839;DHT22;37886;53.174;6.368;2023-01-23T06:32:03;2.20;99.90
51839;DHT22;37886;53.174;6.368;2023-01-23T06:34:29;2.30;99.90
51839;DHT22;37886;53.174;6.368;2023-01-23T06:36:55;2.30;99.90
51839;DHT22;37886;53.174;6.368;2023-01-23T06:39:21;2.30;99.90
51839;DHT22;37886;53.174;6.368;2023-01-23T06:41:49;2.30;99.90
51839;DHT22;37886;53.174;6.368;2023-01-23T06:44:15;2.30;99.90
51839;DHT22;37886;53.174;6.368;2023-01-23T06:46:43;2.30;99.90
51839;DHT22;37886;53.174;6.368;2023-01-23T06:49:25;2.30;99.90
51839;DHT22;37886;53.174;6.368;2023-01-23T06:52:00;2.30;99.90
51839;DHT22;37886;53.174;6.368;2023-01-23T06:54:51;2.30;99.90
51839;DHT22;37886;53.174;6.368;2023-01-23T06:57:39;2.30;99.90
51839;DHT22;37886;53.174;6.368;2023-01-23T07:00:13;2.30;99.90
51839;DHT22;37886;53.174;6.368;2023-01-23T07:02:40;2.30;99.90
51839;DHT22;37886;53.174;6.368;2023-01-23T07:05:25;2.20;99.90
51839;DHT22;37886;53.174;6.368;2023-01-23T07:07:53;2.20;99.90
51839;DHT22;37886;53.174;6.368;2023-01-23T07:10:22;2.20;99.90
51839;DHT22;37886;53.174;6.368;2023-01-23T07:12:49;2.20;99.90
51839;DHT22;37886;53.174;6.368;2023-01-23T07:15:23;2.20;99.90
51839;DHT22;37886;53.174;6.368;2023-01-23T07:18:12;2.20;99.90
51839;DHT22;37886;53.174;6.368;2023-01-23T07:20:48;2.10;99.90
51839;DHT22;37886;53.174;6.368;2023-01-23T07:23:14;2.10;99.90
51839;DHT22;37886;53.174;6.368;2023-01-23T07:25:41;2.10;99.90
51839;DHT22;37886;53.174;6.368;2023-01-23T07:28:07;2.20;99.90
51839;DHT22;37886;53.174;6.368;2023-01-23T07:30:45;2.20;99.90
51839;DHT22;37886;53.174;6.368;2023-01-23T07:33:25;2.20;99.90
51839;DHT22;37886;53.174;6.368;2023-01-23T07:36:28;2.20;99.90
51839;DHT22;37886;53.174;6.368;2023-01-23T07:42:38;2.20;99.90
51839;DHT22;37886;53.174;6.368;2023-01-23T08:04:12;2.30;99.90
51839;DHT22;37886;53.174;6.368;2023-01-23T08:07:47;2.30;99.90
51839;DHT22;37886;53.174;6.368;2023-01-23T08:22:42;2.40;99.90
51839;DHT22;37886;53.174;6.368;2023-01-23T08:32:56;2.40;99.90
51839;DHT22;37886;53.174;6.368;2023-01-23T08:43:53;2.60;99.90
51839;DHT22;37886;53.174;6.368;2023-01-23T08:50:40;2.70;99.90
51839;DHT22;37886;53.174;6.368;2023-01-23T08:57:26;2.80;99.90
51839;DHT22;37886;53.174;6.368;2023-01-23T09:00:13;2.80;99.90
51839;DHT22;37886;53.174;6.368;2023-01-23T09:02:47;2.90;99.90
51839;DHT22;37886;53.174;6.368;2023-01-23T09:05:40;2.90;99.90
51839;DHT22;37886;53.174;6.368;2023-01-23T09:11:58;3.00;99.90
51839;DHT22;37886;53.174;6.368;2023-01-23T09:22:23;3.10;99.90
51839;DHT22;37886;53.174;6.368;2023-01-23T09:56:11;3.40;99.90
51839;DHT22;37886;53.174;6.368;2023-01-23T10:02:33;3.50;99.90
51839;DHT22;37886;53.174;6.368;2023-01-23T10:05:04;3.60;99.90
51839;DHT22;37886;53.174;6.368;2023-01-23T10:23:18;3.80;99.90
51839;DHT22;37886;53.174;6.368;2023-01-23T10:26:38;3.70;99.90
51839;DHT22;37886;53.174;6.368;2023-01-23T10:40:48;3.90;99.90
51839;DHT22;37886;53.174;6.368;2023-01-23T11:53:40;4.30;99.90
51839;DHT22;37886;53.174;6.368;2023-01-23T12:16:33;4.30;99.90
51839;DHT22;37886;53.174;6.368;2023-01-23T12:40:40;4.40;99.90
51839;DHT22;37886;53.174;6.368;2023-01-23T12:43:47;4.40;99.90
51839;DHT22;37886;53.174;6.368;2023-01-23T12:46:39;4.30;99.90
51839;DHT22;37886;53.174;6.368;2023-01-23T12:49:48;4.30;99.90
51839;DHT22;37886;53.174;6.368;2023-01-23T13:02:33;4.30;99.90
51839;DHT22;37886;53.174;6.368;2023-01-23T13:05:21;4.20;99.90
51839;DHT22;37886;53.174;6.368;2023-01-23T13:13:54;4.20;99.90
51839;DHT22;37886;53.174;6.368;2023-01-23T13:16:34;4.10;99.90
51839;DHT22;37886;53.174;6.368;2023-01-23T13:19:23;4.20;99.90
51839;DHT22;37886;53.174;6.368;2023-01-23T13:22:23;4.20;99.90
51839;DHT22;37886;53.174;6.368;2023-01-23T13:28:34;4.10;99.90
51839;DHT22;37886;53.174;6.368;2023-01-23T13:31:06;4.10;99.90
51839;DHT22;37886;53.174;6.368;2023-01-23T13:34:03;4.00;99.90
51839;DHT22;37886;53.174;6.368;2023-01-23T13:37:30;4.00;99.90
51839;DHT22;37886;53.174;6.368;2023-01-23T13:42:50;4.00;99.90
51839;DHT22;37886;53.174;6.368;2023-01-23T13:45:29;4.00;99.90
51839;DHT22;37886;53.174;6.368;2023-01-23T13:51:28;4.00;99.90
51839;DHT22;37886;53.174;6.368;2023-01-23T13:53:54;4.00;99.90
51839;DHT22;37886;53.174;6.368;2023-01-23T13:56:49;4.00;99.90
51839;DHT22;37886;53.174;6.368;2023-01-23T13:59:30;4.00;99.90
51839;DHT22;37886;53.174;6.368;2023-01-23T14:02:16;4.00;99.90
51839;DHT22;37886;53.174;6.368;2023-01-23T14:05:19;4.00;99.90
51839;DHT22;37886;53.174;6.368;2023-01-23T14:07:50;4.10;99.90
51839;DHT22;37886;53.174;6.368;2023-01-23T14:13:13;4.10;99.90
51839;DHT22;37886;53.174;6.368;2023-01-23T14:15:51;4.10;99.90
51839;DHT22;37886;53.174;6.368;2023-01-23T14:18:58;4.00;99.90
51839;DHT22;37886;53.174;6.368;2023-01-23T14:21:32;4.00;99.90
51839;DHT22;37886;53.174;6.368;2023-01-23T14:24:00;3.90;99.90
51839;DHT22;37886;53.174;6.368;2023-01-23T14:26:46;3.90;99.90
51839;DHT22;37886;53.174;6.368;2023-01-23T14:29:25;4.00;99.90
51839;DHT22;37886;53.174;6.368;2023-01-23T14:31:53;3.90;99.90
51839;DHT22;37886;53.174;6.368;2023-01-23T14:34:39;3.90;99.90
51839;DHT22;37886;53.174;6.368;2023-01-23T14:37:09;3.90;99.90
51839;DHT22;37886;53.174;6.368;2023-01-23T14:39:36;3.80;99.90
51839;DHT22;37886;53.174;6.368;2023-01-23T14:42:36;3.80;99.90
51839;DHT22;37886;53.174;6.368;2023-01-23T14:45:19;3.90;99.90
51839;DHT22;37886;53.174;6.368;2023-01-23T14:48:19;3.80;99.90
51839;DHT22;37886;53.174;6.368;2023-01-23T14:50:45;3.80;99.90
51839;DHT22;37886;53.174;6.368;2023-01-23T14:53:14;3.80;99.90
51839;DHT22;37886;53.174;6.368;2023-01-23T14:55:47;3.70;99.90
51839;DHT22;37886;53.174;6.368;2023-01-23T14:58:44;3.70;99.90
51839;DHT22;37886;53.174;6.368;2023-01-23T15:01:20;3.70;99.90
51839;DHT22;37886;53.174;6.368;2023-01-23T15:04:20;3.70;99.90
51839;DHT22;37886;53.174;6.368;2023-01-23T15:07:05;3.70;99.90
51839;DHT22;37886;53.174;6.368;2023-01-23T15:09:49;3.70;99.90
51839;DHT22;37886;53.174;6.368;2023-01-23T15:16:18;3.60;99.90
51839;DHT22;37886;53.174;6.368;2023-01-23T15:19:21;3.50;99.90
51839;DHT22;37886;53.174;6.368;2023-01-23T15:22:36;3.50;99.90
51839;DHT22;37886;53.174;6.368;2023-01-23T15:28:38;3.50;99.90
51839;DHT22;37886;53.174;6.368;2023-01-23T15:31:51;3.50;99.90
51839;DHT22;37886;53.174;6.368;2023-01-23T15:34:52;3.50;99.90
51839;DHT22;37886;53.174;6.368;2023-01-23T15:37:58;3.50;99.90
51839;DHT22;37886;53.174;6.368;2023-01-23T15:40:43;3.50;99.90
51839;DHT22;37886;53.174;6.368;2023-01-23T15:43:18;3.50;99.90
51839;DHT22;37886;53.174;6.368;2023-01-23T15:45:45;3.40;99.90
51839;DHT22;37886;53.174;6.368;2023-01-23T15:48:16;3.40;99.90
51839;DHT22;37886;53.174;6.368;2023-01-23T15:50:52;3.40;99.90
51839;DHT22;37886;53.174;6.368;2023-01-23T15:53:19;3.40;99.90
51839;DHT22;37886;53.174;6.368;2023-01-23T15:55:44;3.40;99.90
51839;DHT22;37886;53.174;6.368;2023-01-23T15:58:12;3.40;99.90
51839;DHT22;37886;53.174;6.368;2023-01-23T16:01:08;3.30;99.90
51839;DHT22;37886;53.174;6.368;2023-01-23T16:03:47;3.30;99.90
51839;DHT22;37886;53.174;6.368;2023-01-23T16:06:26;3.30;99.90
51839;DHT22;37886;53.174;6.368;2023-01-23T16:09:05;3.30;99.90
51839;DHT22;37886;53.174;6.368;2023-01-23T16:26:41;3.20;99.90
51839;DHT22;37886;53.174;6.368;2023-01-23T16:33:21;3.30;99.90
51839;DHT22;37886;53.174;6.368;2023-01-23T16:36:29;3.20;99.90
51839;DHT22;37886;53.174;6.368;2023-01-23T16:39:40;3.20;99.90
51839;DHT22;37886;53.174;6.368;2023-01-23T16:42:31;3.10;99.90
51839;DHT22;37886;53.174;6.368;2023-01-23T16:44:57;3.10;99.90
51839;DHT22;37886;53.174;6.368;2023-01-23T17:07:13;3.10;99.90
51839;DHT22;37886;53.174;6.368;2023-01-23T17:09:39;3.10;99.90
51839;DHT22;37886;53.174;6.368;2023-01-23T17:12:05;3.10;99.90
51839;DHT22;37886;53.174;6.368;2023-01-23T17:14:33;3.10;99.90
51839;DHT22;37886;53.174;6.368;2023-01-23T17:17:05;3.00;99.90
51839;DHT22;37886;53.174;6.368;2023-01-23T17:19:36;3.10;99.90
51839;DHT22;37886;53.174;6.368;2023-01-23T17:22:04;3.00;99.90
51839;DHT22;37886;53.174;6.368;2023-01-23T17:24:31;3.00;99.90
51839;DHT22;37886;53.174;6.368;2023-01-23T17:26:57;3.10;99.90
51839;DHT22;37886;53.174;6.368;2023-01-23T17:29:23;3.10;99.90
51839;DHT22;37886;53.174;6.368;2023-01-23T17:31:49;3.10;99.90
51839;DHT22;37886;53.174;6.368;2023-01-23T17:34:20;3.10;99.90
51839;DHT22;37886;53.174;6.368;2023-01-23T17:36:47;3.10;99.90
51839;DHT22;37886;53.174;6.368;2023-01-23T17:39:13;3.00;99.90
51839;DHT22;37886;53.174;6.368;2023-01-23T17:41:39;3.00;99.90
51839;DHT22;37886;53.174;6.368;2023-01-23T17:44:04;2.90;99.90
51839;DHT22;37886;53.174;6.368;2023-01-23T17:46:32;2.80;99.90
51839;DHT22;37886;53.174;6.368;2023-01-23T17:49:02;2.80;99.90
51839;DHT22;37886;53.174;6.368;2023-01-23T17:51:29;2.80;99.90
51839;DHT22;37886;53.174;6.368;2023-01-23T17:53:55;2.80;99.90
51839;DHT22;37886;53.174;6.368;2023-01-23T17:56:21;2.80;99.90
51839;DHT22;37886;53.174;6.368;2023-01-23T17:58:47;2.80;99.90
51839;DHT22;37886;53.174;6.368;2023-01-23T18:03:44;2.90;99.90
51839;DHT22;37886;53.174;6.368;2023-01-23T18:06:10;2.90;99.90
51839;DHT22;37886;53.174;6.368;2023-01-23T18:08:36;2.80;99.90
51839;DHT22;37886;53.174;6.368;2023-01-23T18:11:05;2.70;99.90
51839;DHT22;37886;53.174;6.368;2023-01-23T18:19:03;2.70;99.90
51839;DHT22;37886;53.174;6.368;2023-01-23T18:21:30;2.70;99.90
51839;DHT22;37886;53.174;6.368;2023-01-23T18:23:56;2.80;99.90
51839;DHT22;37886;53.174;6.368;2023-01-23T18:26:45;2.90;99.90
51839;DHT22;37886;53.174;6.368;2023-01-23T18:46:26;2.70;99.90
51839;DHT22;37886;53.174;6.368;2023-01-23T18:48:53;2.80;99.90
51839;DHT22;37886;53.174;6.368;2023-01-23T18:53:49;2.90;99.90
51839;DHT22;37886;53.174;6.368;2023-01-23T18:56:42;2.90;99.90
51839;DHT22;37886;53.174;6.368;2023-01-23T19:01:50;2.90;99.90
51839;DHT22;37886;53.174;6.368;2023-01-23T19:04:29;2.90;99.90
51839;DHT22;37886;53.174;6.368;2023-01-23T19:06:59;2.90;99.90
51839;DHT22;37886;53.174;6.368;2023-01-23T19:09:25;2.90;99.90
51839;DHT22;37886;53.174;6.368;2023-01-23T19:25:34;2.80;99.90
51839;DHT22;37886;53.174;6.368;2023-01-23T19:28:01;2.90;99.90
51839;DHT22;37886;53.174;6.368;2023-01-23T19:30:27;2.80;99.90
51839;DHT22;37886;53.174;6.368;2023-01-23T19:32:53;2.90;99.90
51839;DHT22;37886;53.174;6.368;2023-01-23T19:35:19;2.90;99.90
51839;DHT22;37886;53.174;6.368;2023-01-23T19:37:46;2.80;99.90
51839;DHT22;37886;53.174;6.368;2023-01-23T19:40:13;2.90;99.90
51839;DHT22;37886;53.174;6.368;2023-01-23T19:42:41;2.80;99.90
51839;DHT22;37886;53.174;6.368;2023-01-23T19:45:16;2.80;99.90
51839;DHT22;37886;53.174;6.368;2023-01-23T19:47:43;2.80;99.90
51839;DHT22;37886;53.174;6.368;2023-01-23T19:50:14;2.70;99.90
51839;DHT22;37886;53.174;6.368;2023-01-23T19:52:42;2.70;99.90
51839;DHT22;37886;53.174;6.368;2023-01-23T19:55:21;2.80;99.90
51839;DHT22;37886;53.174;6.368;2023-01-23T19:57:48;2.80;99.90
51839;DHT22;37886;53.174;6.368;2023-01-23T20:00:14;2.80;99.90
51839;DHT22;37886;53.174;6.368;2023-01-23T20:02:41;2.80;99.90
51839;DHT22;37886;53.174;6.368;2023-01-23T20:05:07;2.80;99.90
51839;DHT22;37886;53.174;6.368;2023-01-23T20:07:33;2.80;99.90
51839;DHT22;37886;53.174;6.368;2023-01-23T20:09:59;2.80;99.90
51839;DHT22;37886;53.174;6.368;2023-01-23T20:12:24;2.80;99.90
51839;DHT22;37886;53.174;6.368;2023-01-23T20:14:50;2.80;99.90
51839;DHT22;37886;53.174;6.368;2023-01-23T20:17:16;2.80;99.90
51839;DHT22;37886;53.174;6.368;2023-01-23T20:19:42;2.80;99.90
51839;DHT22;37886;53.174;6.368;2023-01-23T20:22:07;2.80;99.90
51839;DHT22;37886;53.174;6.368;2023-01-23T20:24:33;2.80;99.90
51839;DHT22;37886;53.174;6.368;2023-01-23T20:26:59;2.80;99.90
51839;DHT22;37886;53.174;6.368;2023-01-23T20:29:25;2.70;99.90
51839;DHT22;37886;53.174;6.368;2023-01-23T20:31:52;2.70;99.90
51839;DHT22;37886;53.174;6.368;2023-01-23T20:34:18;2.70;99.90
51839;DHT22;37886;53.174;6.368;2023-01-23T20:36:44;2.70;99.90
51839;DHT22;37886;53.174;6.368;2023-01-23T20:39:11;2.70;99.90
51839;DHT22;37886;53.174;6.368;2023-01-23T20:41:37;2.80;99.90
51839;DHT22;37886;53.174;6.368;2023-01-23T20:44:03;2.80;99.90
51839;DHT22;37886;53.174;6.368;2023-01-23T20:46:28;2.80;99.90
51839;DHT22;37886;53.174;6.368;2023-01-23T20:48:54;2.80;99.90
51839;DHT22;37886;53.174;6.368;2023-01-23T20:51:20;2.80;99.90
51839;DHT22;37886;53.174;6.368;2023-01-23T20:53:46;2.80;99.90
51839;DHT22;37886;53.174;6.368;2023-01-23T20:56:13;2.70;99.90
51839;DHT22;37886;53.174;6.368;2023-01-23T20:58:42;2.70;99.90
51839;DHT22;37886;53.174;6.368;2023-01-23T21:01:29;2.60;99.90
51839;DHT22;37886;53.174;6.368;2023-01-23T21:03:55;2.60;99.90
51839;DHT22;37886;53.174;6.368;2023-01-23T21:06:21;2.50;99.90
51839;DHT22;37886;53.174;6.368;2023-01-23T21:08:47;2.60;99.90
51839;DHT22;37886;53.174;6.368;2023-01-23T21:11:15;2.70;99.90
51839;DHT22;37886;53.174;6.368;2023-01-23T21:13:41;2.80;99.90
51839;DHT22;37886;53.174;6.368;2023-01-23T21:16:11;2.80;99.90
51839;DHT22;37886;53.174;6.368;2023-01-23T21:18:39;2.80;99.90
51839;DHT22;37886;53.174;6.368;2023-01-23T21:21:14;2.70;99.90
51839;DHT22;37886;53.174;6.368;2023-01-23T21:23:40;2.70;99.90
51839;DHT22;37886;53.174;6.368;2023-01-23T21:26:07;2.60;99.90
51839;DHT22;37886;53.174;6.368;2023-01-23T21:28:34;2.60;99.90
51839;DHT22;37886;53.174;6.368;2023-01-23T21:31:07;2.60;99.90
51839;DHT22;37886;53.174;6.368;2023-01-23T21:33:33;2.70;99.90
51839;DHT22;37886;53.174;6.368;2023-01-23T21:36:00;2.80;99.90
51839;DHT22;37886;53.174;6.368;2023-01-23T21:38:26;2.70;99.90
51839;DHT22;37886;53.174;6.368;2023-01-23T21:40:52;2.70;99.90
51839;DHT22;37886;53.174;6.368;2023-01-23T21:43:18;2.70;99.90
51839;DHT22;37886;53.174;6.368;2023-01-23T21:45:44;2.70;99.90
51839;DHT22;37886;53.174;6.368;2023-01-23T21:48:09;2.70;99.90
51839;DHT22;37886;53.174;6.368;2023-01-23T21:50:35;2.70;99.90
51839;DHT22;37886;53.174;6.368;2023-01-23T21:53:01;2.70;99.90
51839;DHT22;37886;53.174;6.368;2023-01-23T21:55:27;2.70;99.90
51839;DHT22;37886;53.174;6.368;2023-01-23T21:57:52;2.70;99.90
51839;DHT22;37886;53.174;6.368;2023-01-23T22:00:18;2.70;99.90
51839;DHT22;37886;53.174;6.368;2023-01-23T22:03:02;2.70;99.90
51839;DHT22;37886;53.174;6.368;2023-01-23T22:05:28;2.70;99.90
51839;DHT22;37886;53.174;6.368;2023-01-23T22:07:56;2.60;99.90
51839;DHT22;37886;53.174;6.368;2023-01-23T22:10:22;2.60;99.90
51839;DHT22;37886;53.174;6.368;2023-01-23T22:12:47;2.60;99.90
51839;DHT22;37886;53.174;6.368;2023-01-23T22:15:13;2.60;99.90
51839;DHT22;37886;53.174;6.368;2023-01-23T22:17:39;2.50;99.90
51839;DHT22;37886;53.174;6.368;2023-01-23T22:20:05;2.50;99.90
51839;DHT22;37886;53.174;6.368;2023-01-23T22:22:31;2.50;99.90
51839;DHT22;37886;53.174;6.368;2023-01-23T22:24:56;2.60;99.90
51839;DHT22;37886;53.174;6.368;2023-01-23T22:27:22;2.70;99.90
51839;DHT22;37886;53.174;6.368;2023-01-23T22:29:47;2.80;99.90
51839;DHT22;37886;53.174;6.368;2023-01-23T22:32:13;2.80;99.90
51839;DHT22;37886;53.174;6.368;2023-01-23T22:34:39;2.70;99.90